sensor_id;sensor_type;location;lat;lon;timestamp;temperature;humidity
16814;DHT22;8524;57.650;11.926;2023-07-30T00:00:12;17.20;99.90
16814;DHT22;8524;57.650;11.926;2023-07-30T00:02:39;17.10;99.90
16814;DHT22;8524;57.650;11.926;2023-07-30T00:05:06;17.10;99.90
16814;DHT22;8524;57.650;11.926;2023-07-30T00:07:33;17.10;99.90
16814;DHT22;8524;57.650;11.926;2023-07-30T00:10:02;17.10;99.90
16814;DHT22;8524;57.650;11.926;2023-07-30T00:12:29;17.10;99.90
16814;DHT22;8524;57.650;11.926;2023-07-30T00:14:56;17.10;99.90
16814;DHT22;8524;57.650;11.926;2023-07-30T00:17:23;17.10;99.90
16814;DHT22;8524;57.650;11.926;2023-07-30T00:19:50;17.10;99.90
16814;DHT22;8524;57.650;11.926;2023-07-30T00:22:17;17.10;99.90
16814;DHT22;8524;57.650;11.926;2023-07-30T00:24:44;17.10;99.90
16814;DHT22;8524;57.650;11.926;2023-07-30T00:27:12;17.20;99.90
16814;DHT22;8524;57.650;11.926;2023-07-30T00:29:39;17.20;99.90
16814;DHT22;8524;57.650;11.926;2023-07-30T00:32:07;17.10;99.90
16814;DHT22;8524;57.650;11.926;2023-07-30T00:34:34;17.10;99.90
16814;DHT22;8524;57.650;11.926;2023-07-30T00:37:01;17.10;99.90
16814;DHT22;8524;57.650;11.926;2023-07-30T00:39:28;17.10;99.90
16814;DHT22;8524;57.650;11.926;2023-07-30T00:41:55;17.10;99.90
16814;DHT22;8524;57.650;11.926;2023-07-30T00:44:24;17.10;99.90
16814;DHT22;8524;57.650;11.926;2023-07-30T00:46:51;17.10;99.90
16814;DHT22;8524;57.650;11.926;2023-07-30T00:49:18;17.10;99.90
16814;DHT22;8524;57.650;11.926;2023-07-30T00:51:45;17.10;99.90
16814;DHT22;8524;57.650;11.926;2023-07-30T00:54:12;17.10;99.90
16814;DHT22;8524;57.650;11.926;2023-07-30T00:56:45;17.10;99.90
16814;DHT22;8524;57.650;11.926;2023-07-30T00:59:14;17.10;99.90
16814;DHT22;8524;57.650;11.926;2023-07-30T01:01:43;17.10;99.90
16814;DHT22;8524;57.650;11.926;2023-07-30T01:04:13;17.00;99.90
16814;DHT22;8524;57.650;11.926;2023-07-30T01:06:40;16.90;99.90
16814;DHT22;8524;57.650;11.926;2023-07-30T01:09:07;16.90;99.90
16814;DHT22;8524;57.650;11.926;2023-07-30T01:11:35;16.80;99.90
16814;DHT22;8524;57.650;11.926;2023-07-30T01:14:04;16.80;99.90
16814;DHT22;8524;57.650;11.926;2023-07-30T01:16:31;16.70;99.90
16814;DHT22;8524;57.650;11.926;2023-07-30T01:19:00;16.70;99.90
16814;DHT22;8524;57.650;11.926;2023-07-30T01:21:32;16.70;99.90
16814;DHT22;8524;57.650;11.926;2023-07-30T01:23:59;16.70;99.90
16814;DHT22;8524;57.650;11.926;2023-07-30T01:26:31;16.70;99.90
16814;DHT22;8524;57.650;11.926;2023-07-30T01:29:01;16.70;99.90
16814;DHT22;8524;57.650;11.926;2023-07-30T01:31:32;16.70;99.90
16814;DHT22;8524;57.650;11.926;2023-07-30T01:34:01;16.70;99.90
16814;DHT22;8524;57.650;11.926;2023-07-30T01:36:32;16.70;99.90
16814;DHT22;8524;57.650;11.926;2023-07-30T01:39:00;16.70;99.90
16814;DHT22;8524;57.650;11.926;2023-07-30T01:41:27;16.70;99.90
16814;DHT22;8524;57.650;11.926;2023-07-30T01:43:54;16.80;99.90
16814;DHT22;8524;57.650;11.926;2023-07-30T01:46:21;16.80;99.90
16814;DHT22;8524;57.650;11.926;2023-07-30T01:48:48;16.80;99.90
16814;DHT22;8524;57.650;11.926;2023-07-30T01:51:15;16.90;99.90
16814;DHT22;8524;57.650;11.926;2023-07-30T01:53:43;16.90;99.90
16814;DHT22;8524;57.650;11.926;2023-07-30T01:56:10;16.90;99.90
16814;DHT22;8524;57.650;11.926;2023-07-30T01:58:37;16.90;99.90
16814;DHT22;8524;57.650;11.926;2023-07-30T02:01:04;16.90;99.90
16814;DHT22;8524;57.650;11.926;2023-07-30T02:03:31;16.90;99.90
16814;DHT22;8524;57.650;11.926;2023-07-30T02:05:59;16.90;99.90
16814;DHT22;8524;57.650;11.926;2023-07-30T02:08:26;16.90;99.90
16814;DHT22;8524;57.650;11.926;2023-07-30T02:10:58;17.00;99.90
16814;DHT22;8524;57.650;11.926;2023-07-30T02:13:25;17.00;99.90
16814;DHT22;8524;57.650;11.926;2023-07-30T02:15:52;17.10;99.90
16814;DHT22;8524;57.650;11.926;2023-07-30T02:18:20;17.10;99.90
16814;DHT22;8524;57.650;11.926;2023-07-30T02:20:47;17.10;99.90
16814;DHT22;8524;57.650;11.926;2023-07-30T02:23:15;17.10;99.90
16814;DHT22;8524;57.650;11.926;2023-07-30T02:25:42;17.10;99.90
16814;DHT22;8524;57.650;11.926;2023-07-30T02:28:11;17.10;99.90
16814;DHT22;8524;57.650;11.926;2023-07-30T02:30:38;17.10;99.90
16814;DHT22;8524;57.650;11.926;2023-07-30T02:33:05;17.00;99.90
16814;DHT22;8524;57.650;11.926;2023-07-30T02:35:32;17.10;99.90
16814;DHT22;8524;57.650;11.926;2023-07-30T02:37:59;17.10;99.90
16814;DHT22;8524;57.650;11.926;2023-07-30T02:40:26;17.10;99.90
16814;DHT22;8524;57.650;11.926;2023-07-30T02:42:53;17.10;99.90
16814;DHT22;8524;57.650;11.926;2023-07-30T02:45:21;17.10;99.90
16814;DHT22;8524;57.650;11.926;2023-07-30T02:47:48;17.10;99.90
16814;DHT22;8524;57.650;11.926;2023-07-30T02:50:15;17.10;99.90
16814;DHT22;8524;57.650;11.926;2023-07-30T02:52:42;17.00;99.90
16814;DHT22;8524;57.650;11.926;2023-07-30T02:55:09;17.10;99.90
16814;DHT22;8524;57.650;11.926;2023-07-30T02:57:36;17.10;99.90
16814;DHT22;8524;57.650;11.926;2023-07-30T03:00:04;17.00;99.90
16814;DHT22;8524;57.650;11.926;2023-07-30T03:02:33;17.10;99.90
16814;DHT22;8524;57.650;11.926;2023-07-30T03:05:00;17.00;99.90
16814;DHT22;8524;57.650;11.926;2023-07-30T03:07:27;17.00;99.90
16814;DHT22;8524;57.650;11.926;2023-07-30T03:09:54;16.90;99.90
16814;DHT22;8524;57.650;11.926;2023-07-30T03:12:21;16.90;99.90
16814;DHT22;8524;57.650;11.926;2023-07-30T03:14:49;16.90;99.90
16814;DHT22;8524;57.650;11.926;2023-07-30T03:17:16;16.90;99.90
16814;DHT22;8524;57.650;11.926;2023-07-30T03:19:44;16.90;99.90
16814;DHT22;8524;57.650;11.926;2023-07-30T03:22:12;16.90;99.90
16814;DHT22;8524;57.650;11.926;2023-07-30T03:24:39;17.00;99.90
16814;DHT22;8524;57.650;11.926;2023-07-30T03:27:06;16.90;99.90
16814;DHT22;8524;57.650;11.926;2023-07-30T03:29:33;16.90;99.90
16814;DHT22;8524;57.650;11.926;2023-07-30T03:32:00;16.90;99.90
16814;DHT22;8524;57.650;11.926;2023-07-30T03:34:27;16.90;99.90
16814;DHT22;8524;57.650;11.926;2023-07-30T03:36:56;16.90;99.90
16814;DHT22;8524;57.650;11.926;2023-07-30T03:39:23;17.00;99.90
16814;DHT22;8524;57.650;11.926;2023-07-30T03:41:50;16.90;99.90
16814;DHT22;8524;57.650;11.926;2023-07-30T03:44:17;16.90;99.90
16814;DHT22;8524;57.650;11.926;2023-07-30T03:46:44;16.90;99.90
16814;DHT22;8524;57.650;11.926;2023-07-30T03:49:11;16.90;99.90
16814;DHT22;8524;57.650;11.926;2023-07-30T03:51:38;16.90;99.90
16814;DHT22;8524;57.650;11.926;2023-07-30T03:54:07;16.90;99.90
16814;DHT22;8524;57.650;11.926;2023-07-30T03:56:34;16.90;99.90
16814;DHT22;8524;57.650;11.926;2023-07-30T03:59:00;16.90;99.90
16814;DHT22;8524;57.650;11.926;2023-07-30T04:01:28;16.90;99.90
16814;DHT22;8524;57.650;11.926;2023-07-30T04:03:56;16.90;99.90
16814;DHT22;8524;57.650;11.926;2023-07-30T04:06:23;17.00;99.90
16814;DHT22;8524;57.650;11.926;2023-07-30T04:08:50;17.00;99.90
16814;DHT22;8524;57.650;11.926;2023-07-30T04:11:18;17.00;99.90
16814;DHT22;8524;57.650;11.926;2023-07-30T04:13:45;17.00;99.90
16814;DHT22;8524;57.650;11.926;2023-07-30T04:16:12;17.00;99.90
16814;DHT22;8524;57.650;11.926;2023-07-30T04:18:39;17.00;99.90
16814;DHT22;8524;57.650;11.926;2023-07-30T04:21:06;17.00;99.90
16814;DHT22;8524;57.650;11.926;2023-07-30T04:23:33;17.00;99.90
16814;DHT22;8524;57.650;11.926;2023-07-30T04:26:00;17.00;99.90
16814;DHT22;8524;57.650;11.926;2023-07-30T04:28:28;17.00;99.90
16814;DHT22;8524;57.650;11.926;2023-07-30T04:30:55;17.10;99.90
16814;DHT22;8524;57.650;11.926;2023-07-30T04:33:22;17.00;99.90
16814;DHT22;8524;57.650;11.926;2023-07-30T04:35:49;17.00;99.90
16814;DHT22;8524;57.650;11.926;2023-07-30T04:38:16;17.10;99.90
16814;DHT22;8524;57.650;11.926;2023-07-30T04:40:43;17.10;99.90
16814;DHT22;8524;57.650;11.926;2023-07-30T04:43:10;17.10;99.90
16814;DHT22;8524;57.650;11.926;2023-07-30T04:45:39;17.00;99.90
16814;DHT22;8524;57.650;11.926;2023-07-30T04:48:06;17.00;99.90
16814;DHT22;8524;57.650;11.926;2023-07-30T04:50:33;17.00;99.90
16814;DHT22;8524;57.650;11.926;2023-07-30T04:53:00;17.00;99.90
16814;DHT22;8524;57.650;11.926;2023-07-30T04:55:27;17.00;99.90
16814;DHT22;8524;57.650;11.926;2023-07-30T04:57:54;17.10;99.90
16814;DHT22;8524;57.650;11.926;2023-07-30T05:00:21;17.10;99.90
16814;DHT22;8524;57.650;11.926;2023-07-30T05:02:49;17.20;99.90
16814;DHT22;8524;57.650;11.926;2023-07-30T05:05:16;17.30;99.90
16814;DHT22;8524;57.650;11.926;2023-07-30T05:07:43;17.30;99.90
16814;DHT22;8524;57.650;11.926;2023-07-30T05:10:10;17.40;99.90
16814;DHT22;8524;57.650;11.926;2023-07-30T05:12:37;17.40;99.90
16814;DHT22;8524;57.650;11.926;2023-07-30T05:15:05;17.40;99.90
16814;DHT22;8524;57.650;11.926;2023-07-30T05:17:32;17.40;99.90
16814;DHT22;8524;57.650;11.926;2023-07-30T05:20:01;17.50;99.90
16814;DHT22;8524;57.650;11.926;2023-07-30T05:22:28;17.50;99.90
16814;DHT22;8524;57.650;11.926;2023-07-30T05:24:55;17.50;99.90
16814;DHT22;8524;57.650;11.926;2023-07-30T05:27:22;17.60;99.90
16814;DHT22;8524;57.650;11.926;2023-07-30T05:29:49;17.60;99.90
16814;DHT22;8524;57.650;11.926;2023-07-30T05:32:16;17.70;99.90
16814;DHT22;8524;57.650;11.926;2023-07-30T05:34:43;17.70;99.90
16814;DHT22;8524;57.650;11.926;2023-07-30T05:37:11;17.70;99.90
16814;DHT22;8524;57.650;11.926;2023-07-30T05:39:38;17.70;99.90
16814;DHT22;8524;57.650;11.926;2023-07-30T05:42:05;17.70;99.90
16814;DHT22;8524;57.650;11.926;2023-07-30T05:44:32;17.70;99.90
16814;DHT22;8524;57.650;11.926;2023-07-30T05:46:59;17.70;99.90
16814;DHT22;8524;57.650;11.926;2023-07-30T05:49:26;17.80;99.90
16814;DHT22;8524;57.650;11.926;2023-07-30T05:51:53;17.80;99.90
16814;DHT22;8524;57.650;11.926;2023-07-30T05:54:22;17.80;99.90
16814;DHT22;8524;57.650;11.926;2023-07-30T05:56:49;17.80;99.90
16814;DHT22;8524;57.650;11.926;2023-07-30T05:59:15;17.80;99.90
16814;DHT22;8524;57.650;11.926;2023-07-30T06:01:42;17.80;99.90
16814;DHT22;8524;57.650;11.926;2023-07-30T06:04:09;17.80;99.90
16814;DHT22;8524;57.650;11.926;2023-07-30T06:06:36;17.80;99.90
16814;DHT22;8524;57.650;11.926;2023-07-30T06:09:03;17.90;99.90
16814;DHT22;8524;57.650;11.926;2023-07-30T06:11:32;17.90;99.90
16814;DHT22;8524;57.650;11.926;2023-07-30T06:13:59;17.90;99.90
16814;DHT22;8524;57.650;11.926;2023-07-30T06:16:26;18.00;99.90
16814;DHT22;8524;57.650;11.926;2023-07-30T06:18:53;18.10;99.90
16814;DHT22;8524;57.650;11.926;2023-07-30T06:21:20;18.20;99.90
16814;DHT22;8524;57.650;11.926;2023-07-30T06:23:47;18.30;99.90
16814;DHT22;8524;57.650;11.926;2023-07-30T06:26:14;18.40;99.90
16814;DHT22;8524;57.650;11.926;2023-07-30T06:28:42;18.50;99.90
16814;DHT22;8524;57.650;11.926;2023-07-30T06:31:09;18.50;99.90
16814;DHT22;8524;57.650;11.926;2023-07-30T06:33:36;18.70;99.90
16814;DHT22;8524;57.650;11.926;2023-07-30T06:36:04;19.10;99.90
16814;DHT22;8524;57.650;11.926;2023-07-30T06:38:31;19.30;99.90
16814;DHT22;8524;57.650;11.926;2023-07-30T06:40:58;19.30;99.90
16814;DHT22;8524;57.650;11.926;2023-07-30T06:43:25;19.60;99.90
16814;DHT22;8524;57.650;11.926;2023-07-30T06:45:53;19.80;99.90
16814;DHT22;8524;57.650;11.926;2023-07-30T06:48:20;19.60;99.90
16814;DHT22;8524;57.650;11.926;2023-07-30T06:50:47;19.60;99.90
16814;DHT22;8524;57.650;11.926;2023-07-30T06:53:14;19.40;99.90
16814;DHT22;8524;57.650;11.926;2023-07-30T06:55:41;19.30;99.90
16814;DHT22;8524;57.650;11.926;2023-07-30T06:58:08;19.10;99.90
16814;DHT22;8524;57.650;11.926;2023-07-30T07:00:35;19.00;99.90
16814;DHT22;8524;57.650;11.926;2023-07-30T07:03:04;18.80;99.90
16814;DHT22;8524;57.650;11.926;2023-07-30T07:05:31;18.80;99.90
16814;DHT22;8524;57.650;11.926;2023-07-30T07:07:58;18.60;99.90
16814;DHT22;8524;57.650;11.926;2023-07-30T07:10:25;18.50;99.90
16814;DHT22;8524;57.650;11.926;2023-07-30T07:12:52;18.40;99.90
16814;DHT22;8524;57.650;11.926;2023-07-30T07:15:19;18.80;99.90
16814;DHT22;8524;57.650;11.926;2023-07-30T07:17:46;19.30;99.90
16814;DHT22;8524;57.650;11.926;2023-07-30T07:20:15;19.40;99.90
16814;DHT22;8524;57.650;11.926;2023-07-30T07:22:42;19.50;99.90
16814;DHT22;8524;57.650;11.926;2023-07-30T07:25:09;19.60;99.90
16814;DHT22;8524;57.650;11.926;2023-07-30T07:27:36;19.60;99.90
16814;DHT22;8524;57.650;11.926;2023-07-30T07:30:03;19.70;99.90
16814;DHT22;8524;57.650;11.926;2023-07-30T07:32:30;19.50;99.90
16814;DHT22;8524;57.650;11.926;2023-07-30T07:35:03;19.40;99.90
16814;DHT22;8524;57.650;11.926;2023-07-30T07:37:33;19.20;99.90
16814;DHT22;8524;57.650;11.926;2023-07-30T07:40:00;19.30;99.90
16814;DHT22;8524;57.650;11.926;2023-07-30T07:42:29;19.40;99.90
16814;DHT22;8524;57.650;11.926;2023-07-30T07:44:56;19.60;99.90
16814;DHT22;8524;57.650;11.926;2023-07-30T07:47:23;20.10;99.90
16814;DHT22;8524;57.650;11.926;2023-07-30T07:49:49;20.60;99.90
16814;DHT22;8524;57.650;11.926;2023-07-30T07:52:17;20.80;99.90
16814;DHT22;8524;57.650;11.926;2023-07-30T07:54:46;21.00;99.90
16814;DHT22;8524;57.650;11.926;2023-07-30T07:57:13;21.10;99.90
16814;DHT22;8524;57.650;11.926;2023-07-30T07:59:40;21.30;99.90
16814;DHT22;8524;57.650;11.926;2023-07-30T08:02:10;21.10;99.90
16814;DHT22;8524;57.650;11.926;2023-07-30T08:04:37;20.80;99.90
16814;DHT22;8524;57.650;11.926;2023-07-30T08:07:05;20.70;99.90
16814;DHT22;8524;57.650;11.926;2023-07-30T08:09:32;20.80;99.90
16814;DHT22;8524;57.650;11.926;2023-07-30T08:12:00;20.80;99.90
16814;DHT22;8524;57.650;11.926;2023-07-30T08:14:27;20.70;99.90
16814;DHT22;8524;57.650;11.926;2023-07-30T08:16:54;20.80;99.90
16814;DHT22;8524;57.650;11.926;2023-07-30T08:19:21;20.60;99.90
16814;DHT22;8524;57.650;11.926;2023-07-30T08:21:48;20.30;99.90
16814;DHT22;8524;57.650;11.926;2023-07-30T08:24:15;20.00;99.90
16814;DHT22;8524;57.650;11.926;2023-07-30T08:26:42;20.30;99.90
16814;DHT22;8524;57.650;11.926;2023-07-30T08:29:11;20.40;99.90
16814;DHT22;8524;57.650;11.926;2023-07-30T08:31:39;20.30;99.90
16814;DHT22;8524;57.650;11.926;2023-07-30T08:34:07;20.20;99.90
16814;DHT22;8524;57.650;11.926;2023-07-30T08:36:34;20.10;99.90
16814;DHT22;8524;57.650;11.926;2023-07-30T08:39:01;20.00;99.90
16814;DHT22;8524;57.650;11.926;2023-07-30T08:41:29;19.80;99.90
16814;DHT22;8524;57.650;11.926;2023-07-30T08:43:56;19.70;99.90
16814;DHT22;8524;57.650;11.926;2023-07-30T08:46:25;19.60;99.90
16814;DHT22;8524;57.650;11.926;2023-07-30T08:48:52;19.50;99.90
16814;DHT22;8524;57.650;11.926;2023-07-30T08:51:19;19.50;99.90
16814;DHT22;8524;57.650;11.926;2023-07-30T08:53:48;19.70;99.90
16814;DHT22;8524;57.650;11.926;2023-07-30T08:56:15;20.00;99.90
16814;DHT22;8524;57.650;11.926;2023-07-30T08:58:43;20.60;99.90
16814;DHT22;8524;57.650;11.926;2023-07-30T09:01:12;20.80;99.90
16814;DHT22;8524;57.650;11.926;2023-07-30T09:03:41;21.10;99.90
16814;DHT22;8524;57.650;11.926;2023-07-30T09:06:08;21.00;99.90
16814;DHT22;8524;57.650;11.926;2023-07-30T09:08:35;21.00;99.90
16814;DHT22;8524;57.650;11.926;2023-07-30T09:11:08;21.10;99.90
16814;DHT22;8524;57.650;11.926;2023-07-30T09:13:39;21.60;99.90
16814;DHT22;8524;57.650;11.926;2023-07-30T09:16:11;21.90;99.90
16814;DHT22;8524;57.650;11.926;2023-07-30T09:18:41;22.10;99.90
16814;DHT22;8524;57.650;11.926;2023-07-30T09:21:09;22.00;99.90
16814;DHT22;8524;57.650;11.926;2023-07-30T09:23:39;22.00;99.90
16814;DHT22;8524;57.650;11.926;2023-07-30T09:26:07;21.60;99.90
16814;DHT22;8524;57.650;11.926;2023-07-30T09:28:34;21.50;99.90
16814;DHT22;8524;57.650;11.926;2023-07-30T09:31:02;21.70;99.90
16814;DHT22;8524;57.650;11.926;2023-07-30T09:33:30;21.60;99.90
16814;DHT22;8524;57.650;11.926;2023-07-30T09:36:01;21.70;99.90
16814;DHT22;8524;57.650;11.926;2023-07-30T09:38:28;22.10;99.90
16814;DHT22;8524;57.650;11.926;2023-07-30T09:41:00;22.40;99.90
16814;DHT22;8524;57.650;11.926;2023-07-30T09:43:29;22.50;99.90
16814;DHT22;8524;57.650;11.926;2023-07-30T09:46:01;22.30;99.90
16814;DHT22;8524;57.650;11.926;2023-07-30T09:48:30;21.90;99.90
16814;DHT22;8524;57.650;11.926;2023-07-30T09:51:00;22.10;99.90
16814;DHT22;8524;57.650;11.926;2023-07-30T09:53:29;22.10;99.90
16814;DHT22;8524;57.650;11.926;2023-07-30T09:56:00;21.90;99.90
16814;DHT22;8524;57.650;11.926;2023-07-30T09:58:27;21.90;99.90
16814;DHT22;8524;57.650;11.926;2023-07-30T10:00:56;22.00;99.90
16814;DHT22;8524;57.650;11.926;2023-07-30T10:03:24;21.60;99.90
16814;DHT22;8524;57.650;11.926;2023-07-30T10:05:55;21.30;99.90
16814;DHT22;8524;57.650;11.926;2023-07-30T10:08:25;21.40;99.90
16814;DHT22;8524;57.650;11.926;2023-07-30T10:10:54;21.50;99.90
16814;DHT22;8524;57.650;11.926;2023-07-30T10:13:22;21.60;99.90
16814;DHT22;8524;57.650;11.926;2023-07-30T10:15:50;21.40;99.90
16814;DHT22;8524;57.650;11.926;2023-07-30T10:18:18;21.20;99.90
16814;DHT22;8524;57.650;11.926;2023-07-30T10:20:52;21.30;99.90
16814;DHT22;8524;57.650;11.926;2023-07-30T10:23:20;21.40;99.90
16814;DHT22;8524;57.650;11.926;2023-07-30T10:25:49;21.20;99.90
16814;DHT22;8524;57.650;11.926;2023-07-30T10:28:27;21.40;99.90
16814;DHT22;8524;57.650;11.926;2023-07-30T10:30:58;21.50;99.90
16814;DHT22;8524;57.650;11.926;2023-07-30T10:33:44;21.70;99.90
16814;DHT22;8524;57.650;11.926;2023-07-30T10:36:11;21.60;99.90
16814;DHT22;8524;57.650;11.926;2023-07-30T10:38:39;21.90;99.90
16814;DHT22;8524;57.650;11.926;2023-07-30T10:41:10;21.90;99.90
16814;DHT22;8524;57.650;11.926;2023-07-30T10:43:39;21.60;99.90
16814;DHT22;8524;57.650;11.926;2023-07-30T10:46:07;21.70;99.90
16814;DHT22;8524;57.650;11.926;2023-07-30T10:48:35;21.90;99.90
16814;DHT22;8524;57.650;11.926;2023-07-30T10:51:04;22.30;99.90
16814;DHT22;8524;57.650;11.926;2023-07-30T10:53:31;22.30;99.90
16814;DHT22;8524;57.650;11.926;2023-07-30T10:55:59;22.30;99.90
16814;DHT22;8524;57.650;11.926;2023-07-30T10:58:30;22.20;99.90
16814;DHT22;8524;57.650;11.926;2023-07-30T11:00:58;21.90;99.90
16814;DHT22;8524;57.650;11.926;2023-07-30T11:03:25;21.70;99.90
16814;DHT22;8524;57.650;11.926;2023-07-30T11:05:53;21.70;99.90
16814;DHT22;8524;57.650;11.926;2023-07-30T11:08:31;22.00;99.90
16814;DHT22;8524;57.650;11.926;2023-07-30T11:10:59;22.10;99.90
16814;DHT22;8524;57.650;11.926;2023-07-30T11:13:26;21.90;99.90
16814;DHT22;8524;57.650;11.926;2023-07-30T11:15:54;21.60;99.90
16814;DHT22;8524;57.650;11.926;2023-07-30T11:18:21;21.70;99.90
16814;DHT22;8524;57.650;11.926;2023-07-30T11:20:48;21.80;99.90
16814;DHT22;8524;57.650;11.926;2023-07-30T11:23:18;21.80;99.90
16814;DHT22;8524;57.650;11.926;2023-07-30T11:25:46;21.70;99.90
16814;DHT22;8524;57.650;11.926;2023-07-30T11:28:15;21.60;99.90
16814;DHT22;8524;57.650;11.926;2023-07-30T11:30:55;21.70;99.90
16814;DHT22;8524;57.650;11.926;2023-07-30T11:33:22;21.90;99.90
16814;DHT22;8524;57.650;11.926;2023-07-30T11:35:49;21.60;99.90
16814;DHT22;8524;57.650;11.926;2023-07-30T11:38:17;21.50;99.90
16814;DHT22;8524;57.650;11.926;2023-07-30T11:40:45;21.10;99.90
16814;DHT22;8524;57.650;11.926;2023-07-30T11:43:13;21.20;99.90
16814;DHT22;8524;57.650;11.926;2023-07-30T11:45:40;21.30;99.90
16814;DHT22;8524;57.650;11.926;2023-07-30T11:48:10;21.40;99.90
16814;DHT22;8524;57.650;11.926;2023-07-30T11:50:45;21.50;99.90
16814;DHT22;8524;57.650;11.926;2023-07-30T11:53:13;21.40;99.90
16814;DHT22;8524;57.650;11.926;2023-07-30T11:55:41;21.60;99.90
16814;DHT22;8524;57.650;11.926;2023-07-30T11:58:09;21.70;99.90
16814;DHT22;8524;57.650;11.926;2023-07-30T12:00:37;21.20;99.90
16814;DHT22;8524;57.650;11.926;2023-07-30T12:03:06;21.50;99.90
16814;DHT22;8524;57.650;11.926;2023-07-30T12:05:36;21.70;99.90
16814;DHT22;8524;57.650;11.926;2023-07-30T12:08:03;21.90;99.90
16814;DHT22;8524;57.650;11.926;2023-07-30T12:10:42;22.00;99.90
16814;DHT22;8524;57.650;11.926;2023-07-30T12:13:15;22.00;99.90
16814;DHT22;8524;57.650;11.926;2023-07-30T12:15:44;22.10;99.90
16814;DHT22;8524;57.650;11.926;2023-07-30T12:18:11;22.20;99.90
16814;DHT22;8524;57.650;11.926;2023-07-30T12:20:39;22.40;99.90
16814;DHT22;8524;57.650;11.926;2023-07-30T12:23:06;22.60;99.90
16814;DHT22;8524;57.650;11.926;2023-07-30T12:25:33;22.30;99.90
16814;DHT22;8524;57.650;11.926;2023-07-30T12:28:01;22.20;99.90
16814;DHT22;8524;57.650;11.926;2023-07-30T12:30:28;22.20;99.90
16814;DHT22;8524;57.650;11.926;2023-07-30T12:32:55;21.90;99.90
16814;DHT22;8524;57.650;11.926;2023-07-30T12:35:23;21.70;99.90
16814;DHT22;8524;57.650;11.926;2023-07-30T12:37:51;22.00;99.90
16814;DHT22;8524;57.650;11.926;2023-07-30T12:40:18;22.10;99.90
16814;DHT22;8524;57.650;11.926;2023-07-30T12:42:45;22.10;99.90
16814;DHT22;8524;57.650;11.926;2023-07-30T12:45:12;21.90;99.90
16814;DHT22;8524;57.650;11.926;2023-07-30T12:47:40;21.50;99.90
16814;DHT22;8524;57.650;11.926;2023-07-30T12:50:08;21.30;99.90
16814;DHT22;8524;57.650;11.926;2023-07-30T12:52:35;21.00;99.90
16814;DHT22;8524;57.650;11.926;2023-07-30T12:55:04;20.70;99.90
16814;DHT22;8524;57.650;11.926;2023-07-30T12:57:31;20.80;99.90
16814;DHT22;8524;57.650;11.926;2023-07-30T12:59:58;21.10;99.90
16814;DHT22;8524;57.650;11.926;2023-07-30T13:02:25;21.40;99.90
16814;DHT22;8524;57.650;11.926;2023-07-30T13:04:52;21.70;99.90
16814;DHT22;8524;57.650;11.926;2023-07-30T13:07:19;22.00;99.90
16814;DHT22;8524;57.650;11.926;2023-07-30T13:09:46;21.80;99.90
16814;DHT22;8524;57.650;11.926;2023-07-30T13:12:15;22.00;99.90
16814;DHT22;8524;57.650;11.926;2023-07-30T13:14:42;21.90;99.90
16814;DHT22;8524;57.650;11.926;2023-07-30T13:17:09;21.90;99.90
16814;DHT22;8524;57.650;11.926;2023-07-30T13:19:36;21.90;99.90
16814;DHT22;8524;57.650;11.926;2023-07-30T13:22:03;22.00;99.90
16814;DHT22;8524;57.650;11.926;2023-07-30T13:24:30;22.00;99.90
16814;DHT22;8524;57.650;11.926;2023-07-30T13:26:57;22.00;99.90
16814;DHT22;8524;57.650;11.926;2023-07-30T13:29:26;22.10;99.90
16814;DHT22;8524;57.650;11.926;2023-07-30T13:31:53;22.10;99.90
16814;DHT22;8524;57.650;11.926;2023-07-30T13:34:20;22.00;99.90
16814;DHT22;8524;57.650;11.926;2023-07-30T13:36:47;21.90;99.90
16814;DHT22;8524;57.650;11.926;2023-07-30T13:39:14;21.80;99.90
16814;DHT22;8524;57.650;11.926;2023-07-30T13:41:41;21.90;99.90
16814;DHT22;8524;57.650;11.926;2023-07-30T13:44:08;21.90;99.90
16814;DHT22;8524;57.650;11.926;2023-07-30T13:46:38;21.80;99.90
16814;DHT22;8524;57.650;11.926;2023-07-30T13:49:06;21.80;99.90
16814;DHT22;8524;57.650;11.926;2023-07-30T13:51:33;21.90;99.90
16814;DHT22;8524;57.650;11.926;2023-07-30T13:54:00;21.80;99.90
16814;DHT22;8524;57.650;11.926;2023-07-30T13:56:28;22.10;99.90
16814;DHT22;8524;57.650;11.926;2023-07-30T13:58:56;22.10;99.90
16814;DHT22;8524;57.650;11.926;2023-07-30T14:01:23;22.00;99.90
16814;DHT22;8524;57.650;11.926;2023-07-30T14:03:51;22.10;99.90
16814;DHT22;8524;57.650;11.926;2023-07-30T14:06:18;22.00;99.90
16814;DHT22;8524;57.650;11.926;2023-07-30T14:08:45;21.80;99.90
16814;DHT22;8524;57.650;11.926;2023-07-30T14:11:12;21.80;99.90
16814;DHT22;8524;57.650;11.926;2023-07-30T14:13:40;21.90;99.90
16814;DHT22;8524;57.650;11.926;2023-07-30T14:16:07;22.00;99.90
16814;DHT22;8524;57.650;11.926;2023-07-30T14:18:34;22.00;99.90
16814;DHT22;8524;57.650;11.926;2023-07-30T14:21:02;21.90;99.90
16814;DHT22;8524;57.650;11.926;2023-07-30T14:23:29;22.00;99.90
16814;DHT22;8524;57.650;11.926;2023-07-30T14:25:56;22.00;99.90
16814;DHT22;8524;57.650;11.926;2023-07-30T14:28:24;21.80;99.90
16814;DHT22;8524;57.650;11.926;2023-07-30T14:30:51;21.80;99.90
16814;DHT22;8524;57.650;11.926;2023-07-30T14:33:18;21.70;99.90
16814;DHT22;8524;57.650;11.926;2023-07-30T14:35:45;21.90;99.90
16814;DHT22;8524;57.650;11.926;2023-07-30T14:38:13;22.10;99.90
16814;DHT22;8524;57.650;11.926;2023-07-30T14:40:42;22.00;99.90
16814;DHT22;8524;57.650;11.926;2023-07-30T14:43:09;21.90;99.90
16814;DHT22;8524;57.650;11.926;2023-07-30T14:45:36;21.70;99.90
16814;DHT22;8524;57.650;11.926;2023-07-30T14:48:04;21.70;99.90
16814;DHT22;8524;57.650;11.926;2023-07-30T14:50:31;21.50;99.90
16814;DHT22;8524;57.650;11.926;2023-07-30T14:52:58;21.30;99.90
16814;DHT22;8524;57.650;11.926;2023-07-30T14:55:26;21.20;99.90
16814;DHT22;8524;57.650;11.926;2023-07-30T14:57:53;20.90;99.90
16814;DHT22;8524;57.650;11.926;2023-07-30T15:00:20;20.90;99.90
16814;DHT22;8524;57.650;11.926;2023-07-30T15:02:47;20.60;99.90
16814;DHT22;8524;57.650;11.926;2023-07-30T15:05:15;20.50;99.90
16814;DHT22;8524;57.650;11.926;2023-07-30T15:07:42;20.20;99.90
16814;DHT22;8524;57.650;11.926;2023-07-30T15:10:10;20.10;99.90
16814;DHT22;8524;57.650;11.926;2023-07-30T15:12:38;20.00;99.90
16814;DHT22;8524;57.650;11.926;2023-07-30T15:15:06;19.90;99.90
16814;DHT22;8524;57.650;11.926;2023-07-30T15:17:34;19.90;99.90
16814;DHT22;8524;57.650;11.926;2023-07-30T15:20:01;19.80;99.90
16814;DHT22;8524;57.650;11.926;2023-07-30T15:22:28;19.70;99.90
16814;DHT22;8524;57.650;11.926;2023-07-30T15:24:55;19.50;99.90
16814;DHT22;8524;57.650;11.926;2023-07-30T15:27:22;19.10;99.90
16814;DHT22;8524;57.650;11.926;2023-07-30T15:29:51;18.90;99.90
16814;DHT22;8524;57.650;11.926;2023-07-30T15:32:18;18.80;99.90